Time;durP1;ratioP1;P1;durP2;ratioP2;P2;SDS_P1;SDS_P2;PMS_P1;PMS_P2;Temp;Humidity;BMP_temperature;BMP_pressure;BME280_temperature;BME280_humidity;BME280_pressure;Samples;Min_cycle;Max_cycle;Signal;HPM_P1;HPM_P2
2023/01/08 00:01:42;;;;;;;60.92;32.83;;;;;;;4.59;74.05;98451.06;4975050;28;20537;-67
2023/01/08 00:04:08;;;;;;;61.45;31.88;;;;;;;4.55;73.21;98447.22;4968157;28;20034;-66
2023/01/08 00:06:33;;;;;;;58.10;29.80;;;;;;;4.48;73.78;98444.72;4967482;28;20076;-66
2023/01/08 00:08:58;;;;;;;60.10;31.85;;;;;;;4.44;73.78;98430.03;4968083;28;20456;-67
2023/01/08 00:11:24;;;;;;;66.50;34.28;;;;;;;4.40;73.76;98429.69;4967804;28;20515;-67
2023/01/08 00:13:49;;;;;;;63.50;31.83;;;;;;;4.35;73.55;98435.06;4966525;28;20022;-67
2023/01/08 00:16:16;;;;;;;62.55;32.78;;;;;;;4.31;73.64;98434.78;4967366;28;20114;-67
2023/01/08 00:18:43;;;;;;;61.20;32.95;;;;;;;4.26;73.32;98425.78;4967725;28;20027;-66
2023/01/08 00:21:09;;;;;;;67.32;34.13;;;;;;;4.23;73.78;98427.09;4967513;28;20022;-66
2023/01/08 00:23:35;;;;;;;66.35;34.53;;;;;;;4.20;73.80;98426.78;4967277;28;20019;-67
2023/01/08 00:26:01;;;;;;;68.85;37.38;;;;;;;4.16;73.31;98427.28;4974987;28;20018;-67
2023/01/08 00:28:27;;;;;;;70.78;34.63;;;;;;;4.14;73.70;98421.28;5073386;28;20125;-67
2023/01/08 00:30:52;;;;;;;73.18;36.67;;;;;;;4.10;73.09;98422.88;5046576;28;20111;-67
2023/01/08 00:33:18;;;;;;;73.82;37.83;;;;;;;4.07;73.32;98428.00;4970845;28;20018;-67
2023/01/08 00:35:43;;;;;;;77.10;39.55;;;;;;;4.02;73.19;98420.63;4970735;28;20138;-67
2023/01/08 00:38:09;;;;;;;80.50;42.15;;;;;;;3.96;73.54;98424.34;4969480;28;20076;-67
2023/01/08 00:40:35;;;;;;;79.47;40.78;;;;;;;3.91;72.95;98416.13;4970881;28;20034;-67
2023/01/08 00:43:01;;;;;;;71.78;40.00;;;;;;;3.84;73.60;98419.03;4970139;28;20031;-67
2023/01/08 00:45:27;;;;;;;73.57;39.83;;;;;;;3.79;72.71;98429.84;4970082;28;20034;-68
2023/01/08 00:47:53;;;;;;;69.80;39.15;;;;;;;3.72;73.07;98417.28;4976544;28;20030;-67
2023/01/08 00:50:18;;;;;;;71.10;38.05;;;;;;;3.66;72.88;98412.06;4971099;28;20023;-67
2023/01/08 00:52:43;;;;;;;78.97;41.38;;;;;;;3.60;73.01;98411.19;4978198;28;20383;-67
2023/01/08 00:55:09;;;;;;;73.75;39.50;;;;;;;3.53;73.54;98416.75;4971176;28;20050;-68
2023/01/08 00:57:36;;;;;;;91.80;45.50;;;;;;;3.49;72.86;98412.91;4980437;28;20691;-69
2023/01/08 01:00:04;;;;;;;91.88;47.45;;;;;;;3.43;72.79;98414.75;4970131;28;20045;-69
2023/01/08 01:02:29;;;;;;;91.68;47.42;;;;;;;3.40;73.32;98411.72;4978211;28;20801;-68
2023/01/08 01:04:54;;;;;;;88.35;45.67;;;;;;;3.34;72.97;98401.88;4969193;28;20030;-68
2023/01/08 01:07:20;;;;;;;90.93;44.45;;;;;;;3.29;73.22;98405.31;4968964;28;20069;-68
2023/01/08 01:09:45;;;;;;;83.03;42.92;;;;;;;3.24;73.46;98402.56;4968409;28;20479;-69
2023/01/08 01:12:11;;;;;;;86.18;44.40;;;;;;;3.17;72.92;98402.72;4968486;28;20054;-68
2023/01/08 01:14:37;;;;;;;78.13;42.85;;;;;;;3.11;73.08;98401.00;4967222;28;20027;-69
2023/01/08 01:17:03;;;;;;;78.38;43.55;;;;;;;3.04;72.73;98390.34;4971862;28;20077;-68
2023/01/08 01:19:28;;;;;;;92.13;48.22;;;;;;;3.00;72.93;98391.09;4966777;28;20447;-69
2023/01/08 01:21:53;;;;;;;84.63;47.15;;;;;;;2.96;73.51;98398.88;4968320;28;20100;-68
2023/01/08 01:24:20;;;;;;;89.13;49.53;;;;;;;2.92;73.19;98395.88;4966897;28;20035;-67
2023/01/08 01:26:46;;;;;;;82.70;47.20;;;;;;;2.91;73.06;98391.50;4968533;28;20035;-67
2023/01/08 01:29:11;;;;;;;86.95;46.97;;;;;;;2.85;73.09;98375.44;4969976;28;20053;-68
2023/01/08 01:31:37;;;;;;;85.22;44.30;;;;;;;2.80;73.46;98377.00;4968742;28;20035;-68
2023/01/08 01:34:02;;;;;;;93.30;47.10;;;;;;;2.76;73.15;98383.16;4968622;28;20113;-68
2023/01/08 01:36:28;;;;;;;90.78;45.85;;;;;;;2.72;73.16;98380.13;4968745;28;20110;-67
2023/01/08 01:38:55;;;;;;;92.53;46.95;;;;;;;2.70;73.56;98376.00;4967078;28;20084;-67
2023/01/08 01:41:29;;;;;;;110.95;52.90;;;;;;;2.64;73.52;98375.13;4968777;28;20042;-68
2023/01/08 01:44:19;;;;;;;96.15;49.10;;;;;;;2.60;72.95;98369.38;4974471;28;20109;-67
2023/01/08 01:46:46;;;;;;;87.18;46.25;;;;;;;2.56;73.51;98370.94;4972718;28;20039;-68
2023/01/08 01:49:17;;;;;;;85.90;45.75;;;;;;;2.51;72.93;98378.97;4970355;28;20098;-68
2023/01/08 01:51:48;;;;;;;86.93;44.35;;;;;;;2.48;73.54;98358.59;4979821;28;20506;-68
2023/01/08 01:54:15;;;;;;;83.25;44.30;;;;;;;2.45;73.64;98361.81;4967368;28;20459;-68
2023/01/08 01:56:42;;;;;;;85.28;44.50;;;;;;;2.44;72.77;98368.31;4967901;28;20184;-67
2023/01/08 01:59:08;;;;;;;80.43;43.15;;;;;;;2.43;73.72;98373.94;4970099;28;20038;-68
2023/01/08 02:01:35;;;;;;;82.28;42.80;;;;;;;2.41;72.99;98365.25;4969806;28;20027;-69
2023/01/08 02:04:00;;;;;;;75.65;43.13;;;;;;;2.38;73.66;98364.69;4969254;28;20025;-68
2023/01/08 02:06:59;;;;;;;77.68;41.72;;;;;;;2.31;73.45;98353.19;4969087;28;20113;-68
2023/01/08 02:09:38;;;;;;;80.95;42.40;;;;;;;2.31;73.42;98358.59;4972836;28;20125;-68
2023/01/08 02:12:17;;;;;;;76.35;42.97;;;;;;;2.29;73.10;98358.03;4967987;28;20049;-68
2023/01/08 02:15:10;;;;;;;79.45;41.92;;;;;;;2.27;73.90;98364.75;4965755;28;20022;-67
2023/01/08 02:17:57;;;;;;;81.03;41.90;;;;;;;2.25;73.19;98356.06;4963789;28;20373;-68
2023/01/08 02:20:26;;;;;;;80.63;41.90;;;;;;;2.22;73.84;98347.38;4969945;28;20035;-68
2023/01/08 02:22:52;;;;;;;78.88;41.88;;;;;;;2.22;73.59;98355.47;4968856;28;20053;-69
2023/01/08 02:25:49;;;;;;;78.97;42.65;;;;;;;2.20;73.55;98354.09;4988286;28;20031;-68
2023/01/08 02:28:15;;;;;;;74.60;41.50;;;;;;;2.19;73.59;98364.09;4968401;28;20046;-68
2023/01/08 02:30:41;;;;;;;74.93;40.85;;;;;;;2.17;73.68;98373.53;4969045;28;20073;-68
2023/01/08 02:33:06;;;;;;;76.65;41.28;;;;;;;2.14;73.50;98365.88;4969828;28;20062;-67
2023/01/08 02:35:44;;;;;;;72.55;40.83;;;;;;;2.13;73.50;98366.94;4967902;28;20538;-68
2023/01/08 02:38:13;;;;;;;78.13;42.35;;;;;;;2.07;73.52;98353.34;4967994;28;20088;-68
2023/01/08 02:40:49;;;;;;;77.85;41.65;;;;;;;2.07;73.82;98345.22;4966378;28;20053;-68
2023/01/08 02:43:31;;;;;;;73.60;38.92;;;;;;;2.08;73.28;98341.44;4969248;28;20039;-68
2023/01/08 02:46:00;;;;;;;71.22;39.53;;;;;;;2.07;73.45;98339.81;4967827;28;20019;-67
2023/01/08 02:48:39;;;;;;;73.43;39.70;;;;;;;2.07;73.86;98344.38;4968902;28;20100;-68
2023/01/08 02:51:19;;;;;;;71.55;38.78;;;;;;;2.06;74.28;98343.56;4978559;28;20023;-68
2023/01/08 02:53:49;;;;;;;68.82;39.55;;;;;;;2.06;74.11;98340.88;4965910;28;20034;-68
2023/01/08 02:56:22;;;;;;;71.38;39.42;;;;;;;2.06;74.16;98334.63;4975941;28;20050;-68
2023/01/08 02:58:49;;;;;;;72.90;38.20;;;;;;;2.03;73.99;98327.81;4982115;28;20386;-68
2023/01/08 03:01:17;;;;;;;69.90;37.97;;;;;;;2.03;73.40;98324.31;4968554;28;20113;-68
2023/01/08 03:03:48;;;;;;;68.13;38.70;;;;;;;2.03;74.37;98318.91;4968346;28;20037;-67
2023/01/08 03:06:17;;;;;;;67.10;35.65;;;;;;;2.02;73.63;98315.38;4968432;28;20116;-68
2023/01/08 03:08:46;;;;;;;65.72;36.38;;;;;;;2.00;73.83;98317.50;4966782;28;20031;-69
2023/01/08 03:11:14;;;;;;;67.78;35.60;;;;;;;1.98;74.25;98325.03;4968673;28;20580;-68
2023/01/08 03:14:01;;;;;;;64.82;36.88;;;;;;;1.98;74.29;98327.72;4968060;28;20530;-67
2023/01/08 03:16:36;;;;;;;71.00;37.13;;;;;;;1.98;73.49;98335.03;4974509;28;20050;-68
2023/01/08 03:19:08;;;;;;;64.03;35.55;;;;;;;1.96;73.37;98337.16;4979588;28;20604;-68
2023/01/08 03:21:36;;;;;;;66.25;37.45;;;;;;;1.95;73.36;98327.41;4968207;28;20031;-68
2023/01/08 03:24:03;;;;;;;72.20;37.63;;;;;;;1.93;73.37;98335.75;4977819;28;20078;-68
2023/01/08 03:26:31;;;;;;;66.53;37.10;;;;;;;1.92;74.00;98331.41;4967307;28;20034;-68
2023/01/08 03:28:57;;;;;;;67.28;38.10;;;;;;;1.90;73.42;98328.97;4968079;28;20035;-68
2023/01/08 03:31:27;;;;;;;72.75;39.13;;;;;;;1.90;73.92;98328.97;4978670;28;20031;-67
2023/01/08 03:33:54;;;;;;;72.03;38.45;;;;;;;1.90;73.53;98328.13;4966683;28;20506;-68
2023/01/08 03:36:22;;;;;;;67.32;37.65;;;;;;;1.90;74.32;98330.81;4969107;28;20061;-68
2023/01/08 03:39:15;;;;;;;65.18;36.55;;;;;;;1.89;74.08;98326.47;4970262;28;20122;-68
2023/01/08 03:41:41;;;;;;;72.05;38.15;;;;;;;1.88;74.27;98314.84;4965613;28;20038;-68
2023/01/08 03:44:06;;;;;;;62.10;34.58;;;;;;;1.88;73.96;98314.00;4965933;28;20449;-68
2023/01/08 03:46:36;;;;;;;60.75;34.65;;;;;;;1.91;73.84;98318.94;4967382;28;20027;-68
2023/01/08 03:49:05;;;;;;;59.78;33.58;;;;;;;1.91;74.00;98319.78;4967064;28;20022;-68
2023/01/08 03:51:39;;;;;;;63.83;36.03;;;;;;;1.92;73.62;98317.88;4966437;28;20027;-67
2023/01/08 03:54:05;;;;;;;65.80;36.15;;;;;;;1.95;74.08;98316.59;4980649;28;20031;-68
2023/01/08 03:56:30;;;;;;;62.08;36.58;;;;;;;1.93;73.64;98316.81;4965956;28;20082;-68
2023/01/08 03:58:56;;;;;;;65.43;37.58;;;;;;;1.92;74.46;98310.59;4967057;28;20107;-67
2023/01/08 04:01:21;;;;;;;66.25;38.30;;;;;;;1.92;74.12;98302.50;4970954;28;20041;-68
2023/01/08 04:03:46;;;;;;;65.72;38.20;;;;;;;1.91;74.29;98308.13;4966802;28;20487;-68
2023/01/08 04:06:12;;;;;;;67.68;36.75;;;;;;;1.89;74.36;98300.28;4967665;28;20127;-68
2023/01/08 04:08:37;;;;;;;58.22;34.13;;;;;;;1.86;73.64;98314.28;4967474;28;20031;-68
2023/01/08 04:11:02;;;;;;;61.75;35.10;;;;;;;1.87;74.03;98309.66;4967762;28;20476;-68
2023/01/08 04:13:28;;;;;;;62.88;34.85;;;;;;;1.82;74.25;98298.78;4967903;28;20035;-68
2023/01/08 04:15:53;;;;;;;67.07;37.10;;;;;;;1.80;73.98;98292.81;4967798;28;20035;-69
2023/01/08 04:18:18;;;;;;;65.72;36.88;;;;;;;1.78;74.19;98296.56;4966475;28;20042;-68
2023/01/08 04:20:45;;;;;;;65.93;35.95;;;;;;;1.78;73.80;98293.88;5009989;28;20085;-68
2023/01/08 04:23:11;;;;;;;62.20;34.70;;;;;;;1.77;74.15;98284.09;5061154;28;20074;-68
2023/01/08 04:25:37;;;;;;;60.42;34.05;;;;;;;1.78;73.71;98291.16;4967800;28;20035;-68
2023/01/08 04:28:03;;;;;;;64.70;33.47;;;;;;;1.76;73.81;98295.16;4967826;28;20034;-68
2023/01/08 04:30:28;;;;;;;63.10;33.83;;;;;;;1.74;73.80;98292.72;4967825;28;20030;-68
2023/01/08 04:32:53;;;;;;;67.20;33.50;;;;;;;1.73;74.10;98282.94;4966219;28;20106;-68
2023/01/08 04:35:19;;;;;;;61.17;33.05;;;;;;;1.72;73.95;98291.28;4967520;28;20053;-68
2023/01/08 04:37:44;;;;;;;58.22;33.20;;;;;;;1.71;74.50;98282.38;5008298;28;20045;-68
2023/01/08 04:40:10;;;;;;;60.60;32.80;;;;;;;1.71;74.06;98287.78;5068615;28;20084;-68
2023/01/08 04:42:35;;;;;;;55.72;31.40;;;;;;;1.72;74.38;98288.59;5066763;28;20033;-68
2023/01/08 04:45:01;;;;;;;58.35;31.60;;;;;;;1.73;74.29;98301.88;4967671;28;20027;-68
2023/01/08 04:47:26;;;;;;;56.30;31.52;;;;;;;1.75;73.90;98288.94;4967874;28;20027;-68
2023/01/08 04:49:51;;;;;;;57.72;32.95;;;;;;;1.79;74.48;98291.97;4967425;28;20427;-68
2023/01/08 04:52:17;;;;;;;59.20;32.15;;;;;;;1.83;74.25;98295.03;4966261;28;20127;-69
2023/01/08 04:54:42;;;;;;;54.95;31.75;;;;;;;1.87;74.19;98291.56;4966659;28;20026;-68
2023/01/08 04:57:07;;;;;;;54.75;32.80;;;;;;;1.90;74.20;98288.38;4966177;28;20066;-67
2023/01/08 04:59:33;;;;;;;60.50;32.85;;;;;;;1.91;74.27;98276.50;4979655;28;20030;-68
2023/01/08 05:01:59;;;;;;;55.53;31.58;;;;;;;1.97;74.74;98279.31;5068623;28;20115;-68
2023/01/08 05:04:24;;;;;;;58.03;30.13;;;;;;;1.97;74.50;98274.69;4991214;28;20089;-68
2023/01/08 05:06:50;;;;;;;56.40;31.85;;;;;;;1.98;74.59;98281.75;4967024;28;20031;-68
2023/01/08 05:09:15;;;;;;;58.65;33.72;;;;;;;1.97;74.02;98274.69;4967193;28;20444;-67
2023/01/08 05:11:42;;;;;;;62.13;36.15;;;;;;;1.93;74.45;98268.13;4968436;28;20080;-68
2023/01/08 05:14:07;;;;;;;61.42;33.42;;;;;;;1.93;73.97;98276.25;4970366;28;20429;-68
2023/01/08 05:16:32;;;;;;;61.67;34.30;;;;;;;1.91;73.91;98268.38;4970525;28;20034;-68
2023/01/08 05:18:58;;;;;;;60.30;33.92;;;;;;;1.89;73.74;98269.69;4969847;28;20035;-68
2023/01/08 05:21:23;;;;;;;64.82;35.78;;;;;;;1.86;73.83;98259.34;4970740;28;20510;-68
2023/01/08 05:23:49;;;;;;;62.33;35.08;;;;;;;1.81;73.80;98262.81;4969257;28;20168;-68
2023/01/08 05:26:15;;;;;;;57.55;32.53;;;;;;;1.77;73.91;98253.53;4970873;28;20030;-68
2023/01/08 05:28:41;;;;;;;54.72;32.08;;;;;;;1.76;73.81;98255.44;4967173;28;20254;-68
2023/01/08 05:31:06;;;;;;;57.17;32.10;;;;;;;1.73;74.24;98249.66;4967959;28;20056;-67
2023/01/08 05:33:32;;;;;;;53.05;31.63;;;;;;;1.70;73.69;98256.41;4970109;28;20360;-67
2023/01/08 05:35:57;;;;;;;52.63;31.13;;;;;;;1.68;73.67;98254.97;4969695;28;20038;-67
2023/01/08 05:38:22;;;;;;;50.53;28.95;;;;;;;1.67;74.10;98258.75;4968685;28;20035;-67
2023/01/08 05:40:51;;;;;;;54.88;30.88;;;;;;;1.64;73.69;98254.66;4968725;28;20491;-68
2023/01/08 05:43:17;;;;;;;54.45;30.23;;;;;;;1.58;73.78;98256.47;4969613;28;20663;-68
2023/01/08 05:45:42;;;;;;;48.25;28.50;;;;;;;1.54;74.25;98260.72;4970234;28;20105;-68
2023/01/08 05:48:07;;;;;;;52.25;30.60;;;;;;;1.50;74.28;98259.56;4970230;28;20035;-68
2023/01/08 05:50:34;;;;;;;55.38;31.35;;;;;;;1.45;73.55;98265.66;4970182;28;20452;-68
2023/01/08 05:52:59;;;;;;;60.13;32.20;;;;;;;1.44;73.41;98255.09;4969108;28;20506;-68
2023/01/08 05:55:24;;;;;;;53.63;31.73;;;;;;;1.43;74.00;98264.28;5058908;28;20041;-68
2023/01/08 05:57:50;;;;;;;57.95;32.75;;;;;;;1.40;73.84;98257.47;4995348;28;20034;-68
2023/01/08 06:00:15;;;;;;;61.15;32.38;;;;;;;1.40;73.61;98264.75;4970040;28;20038;-67
2023/01/08 06:02:45;;;;;;;66.55;35.78;;;;;;;1.36;74.33;98253.63;4977520;28;20040;-67
2023/01/08 06:05:10;;;;;;;79.00;38.05;;;;;;;1.33;74.06;98248.69;4963212;28;20031;-68
2023/01/08 06:07:36;;;;;;;79.45;36.85;;;;;;;1.31;74.05;98240.81;4967384;28;20087;-67
2023/01/08 06:10:01;;;;;;;81.50;39.05;;;;;;;1.32;73.77;98252.47;4969633;28;20039;-68
2023/01/08 06:12:26;;;;;;;78.07;38.55;;;;;;;1.31;73.45;98240.81;4992398;28;20974;-68
2023/01/08 06:14:52;;;;;;;70.82;38.15;;;;;;;1.28;73.40;98237.78;4969828;28;20030;-68
2023/01/08 06:17:17;;;;;;;77.80;38.28;;;;;;;1.26;73.76;98245.31;4969777;28;20131;-68
2023/01/08 06:19:45;;;;;;;81.25;39.80;;;;;;;1.26;73.66;98243.41;4969339;28;20034;-67
2023/01/08 06:22:10;;;;;;;83.85;39.90;;;;;;;1.24;74.30;98239.31;4969006;28;20557;-67
2023/01/08 06:24:36;;;;;;;79.30;38.30;;;;;;;1.23;73.40;98232.28;4968917;28;20050;-68
2023/01/08 06:27:01;;;;;;;73.72;38.75;;;;;;;1.22;74.28;98244.97;4969667;28;20034;-68
2023/01/08 06:29:26;;;;;;;72.40;35.90;;;;;;;1.24;73.77;98231.22;4968158;28;20112;-68
2023/01/08 06:31:52;;;;;;;70.07;35.55;;;;;;;1.24;73.74;98232.03;4968674;28;20022;-69
2023/01/08 06:34:17;;;;;;;64.75;33.35;;;;;;;1.26;74.07;98223.69;4982854;28;20038;-68
2023/01/08 06:36:42;;;;;;;59.35;32.40;;;;;;;1.29;74.53;98226.72;4969885;28;20039;-68
2023/01/08 06:39:08;;;;;;;56.65;32.47;;;;;;;1.32;74.38;98225.44;4968454;28;20046;-68
2023/01/08 06:41:33;;;;;;;57.95;32.28;;;;;;;1.36;74.38;98223.06;4967408;28;20088;-67
2023/01/08 06:43:59;;;;;;;60.47;33.13;;;;;;;1.37;74.44;98222.00;4969406;28;20034;-67
2023/01/08 06:46:25;;;;;;;60.38;33.40;;;;;;;1.39;74.11;98219.88;4973873;28;20030;-68
2023/01/08 06:48:50;;;;;;;55.88;31.77;;;;;;;1.40;74.23;98214.25;4951824;28;20058;-68
2023/01/08 06:51:16;;;;;;;53.20;31.58;;;;;;;1.45;73.91;98219.72;4969173;28;20042;-68
2023/01/08 06:53:41;;;;;;;51.88;32.28;;;;;;;1.48;74.08;98221.94;4966221;28;20101;-68
2023/01/08 06:56:09;;;;;;;50.60;30.15;;;;;;;1.49;74.50;98223.56;4968660;28;20552;-68
2023/01/08 06:58:36;;;;;;;48.92;29.00;;;;;;;1.54;74.67;98222.03;4965169;28;20031;-69
2023/01/08 07:01:01;;;;;;;51.08;28.98;;;;;;;1.58;74.56;98225.91;4967836;28;20394;-68
2023/01/08 07:03:27;;;;;;;48.83;28.17;;;;;;;1.64;74.91;98214.09;5026072;28;20029;-68
2023/01/08 07:05:52;;;;;;;52.20;29.08;;;;;;;1.70;74.39;98204.19;5008981;28;20114;-68
2023/01/08 07:08:18;;;;;;;47.92;27.55;;;;;;;1.77;75.13;98213.81;4969378;28;20038;-68
2023/01/08 07:10:43;;;;;;;52.92;28.90;;;;;;;1.88;74.70;98224.78;5065034;28;20028;-68
2023/01/08 07:13:11;;;;;;;52.90;31.20;;;;;;;1.93;74.91;98216.75;4977632;28;20035;-68
2023/01/08 07:15:38;;;;;;;58.95;33.65;;;;;;;2.01;74.71;98220.94;4966093;28;20030;-68
2023/01/08 07:18:07;;;;;;;62.03;35.97;;;;;;;2.06;75.25;98210.19;4968548;28;20023;-68
2023/01/08 07:20:33;;;;;;;78.18;41.78;;;;;;;2.11;74.46;98215.69;4968102;28;20057;-68
2023/01/08 07:23:02;;;;;;;86.57;43.55;;;;;;;2.11;75.02;98212.16;4968383;28;20110;-68
2023/01/08 07:25:27;;;;;;;84.23;43.73;;;;;;;2.12;74.47;98213.81;4968542;28;20606;-69
2023/01/08 07:27:53;;;;;;;79.88;41.03;;;;;;;2.12;74.29;98209.19;4968898;28;20045;-68
2023/01/08 07:30:18;;;;;;;76.68;41.70;;;;;;;2.14;74.27;98208.97;5002854;28;20983;-68
2023/01/08 07:32:44;;;;;;;72.53;40.88;;;;;;;2.18;74.35;98216.34;4987509;28;20158;-69
2023/01/08 07:35:09;;;;;;;71.57;38.22;;;;;;;2.21;74.45;98209.63;4967277;28;20400;-68
2023/01/08 07:37:42;;;;;;;76.20;40.65;;;;;;;2.26;74.83;98209.66;4968409;28;20065;-69
2023/01/08 07:40:09;;;;;;;76.80;41.20;;;;;;;2.33;74.95;98201.41;4968174;28;20491;-68
2023/01/08 07:42:34;;;;;;;68.88;35.65;;;;;;;2.39;74.64;98195.00;4968325;28;20034;-69
2023/01/08 07:45:00;;;;;;;66.78;33.67;;;;;;;2.44;75.64;98184.25;4967686;28;20034;-69
2023/01/08 07:47:25;;;;;;;53.63;29.48;;;;;;;2.51;74.92;98181.34;4968422;28;20111;-68
2023/01/08 07:49:50;;;;;;;52.38;29.40;;;;;;;2.60;75.86;98181.72;4968450;28;20450;-69
2023/01/08 07:52:16;;;;;;;52.53;27.77;;;;;;;2.66;75.22;98184.22;4968364;28;20073;-68
2023/01/08 07:54:41;;;;;;;49.78;28.23;;;;;;;2.73;75.31;98178.66;4967545;28;20554;-69
2023/01/08 07:57:06;;;;;;;54.05;29.63;;;;;;;2.80;75.08;98179.28;4968289;28;20453;-69
2023/01/08 07:59:32;;;;;;;55.60;28.63;;;;;;;2.88;75.72;98178.00;4967909;28;20035;-68
2023/01/08 08:01:57;;;;;;;53.53;29.27;;;;;;;2.93;75.26;98178.06;4967459;28;20045;-69
2023/01/08 08:04:23;;;;;;;53.75;31.23;;;;;;;3.01;75.74;98181.41;4965547;28;20517;-68
2023/01/08 08:06:49;;;;;;;54.88;31.05;;;;;;;3.06;76.15;98168.72;4968084;28;20023;-68
2023/01/08 08:09:14;;;;;;;62.53;34.42;;;;;;;3.12;76.37;98166.88;4967438;28;20532;-68
2023/01/08 08:11:39;;;;;;;63.35;35.20;;;;;;;3.20;75.96;98174.56;4967185;28;20455;-68
2023/01/08 08:14:06;;;;;;;67.72;38.13;;;;;;;3.24;75.90;98178.41;4968387;28;20459;-68
2023/01/08 08:16:31;;;;;;;85.38;45.03;;;;;;;3.27;75.87;98177.06;4968111;28;20084;-68
2023/01/08 08:18:58;;;;;;;89.43;47.78;;;;;;;3.25;75.82;98174.63;4968172;28;20038;-69
2023/01/08 08:21:23;;;;;;;94.65;48.95;;;;;;;3.25;75.08;98174.63;4966732;28;20421;-68
2023/01/08 08:23:48;;;;;;;96.72;52.08;;;;;;;3.23;75.01;98167.84;4966976;28;20376;-69
2023/01/08 08:26:14;;;;;;;88.30;49.42;;;;;;;3.22;75.67;98174.31;4966071;28;20117;-68
2023/01/08 08:28:39;;;;;;;90.13;50.92;;;;;;;3.22;75.21;98167.00;4968058;28;20827;-69
2023/01/08 08:31:05;;;;;;;100.28;53.67;;;;;;;3.19;75.29;98153.97;4969402;28;20073;-69
2023/01/08 08:33:30;;;;;;;107.63;55.85;;;;;;;3.21;74.78;98159.94;4981080;28;20034;-69
2023/01/08 08:35:56;;;;;;;100.18;51.90;;;;;;;3.23;75.30;98165.13;4967695;28;20627;-68
2023/01/08 08:38:21;;;;;;;105.03;53.45;;;;;;;3.25;74.69;98162.97;4968159;28;20023;-68
2023/01/08 08:40:46;;;;;;;98.68;50.90;;;;;;;3.28;75.61;98160.56;4967619;28;20109;-69
2023/01/08 08:43:12;;;;;;;111.40;57.88;;;;;;;3.31;75.01;98166.53;4966631;28;20058;-69
2023/01/08 08:45:37;;;;;;;103.55;56.05;;;;;;;3.35;74.87;98167.69;4967733;28;20031;-68
2023/01/08 08:48:06;;;;;;;106.20;57.10;;;;;;;3.32;75.38;98155.44;4970811;28;20057;-69
2023/01/08 08:50:32;;;;;;;103.25;56.47;;;;;;;3.32;75.68;98141.09;4992218;28;20475;-68
2023/01/08 08:53:02;;;;;;;110.82;59.58;;;;;;;3.34;75.48;98145.16;5028193;28;20030;-68
2023/01/08 08:55:28;;;;;;;107.18;58.53;;;;;;;3.37;75.23;98146.56;4968740;28;20050;-68
2023/01/08 08:57:53;;;;;;;103.05;58.63;;;;;;;3.40;75.01;98148.75;4969984;28;20035;-69
2023/01/08 09:00:19;;;;;;;91.60;52.08;;;;;;;3.44;75.24;98152.59;4967759;28;20038;-68
2023/01/08 09:02:44;;;;;;;97.28;53.42;;;;;;;3.48;75.11;98150.97;4976156;28;20026;-68
2023/01/08 09:05:10;;;;;;;101.50;53.70;;;;;;;3.54;75.70;98144.53;5073050;28;20068;-68
2023/01/08 09:07:36;;;;;;;95.03;52.83;;;;;;;3.61;75.21;98143.50;5071413;28;20048;-68
2023/01/08 09:10:03;;;;;;;89.60;50.75;;;;;;;3.68;75.88;98144.09;5072573;28;20067;-68
2023/01/08 09:12:28;;;;;;;86.68;47.92;;;;;;;3.77;75.60;98137.13;5001271;28;20035;-68
2023/01/08 09:14:55;;;;;;;86.85;48.72;;;;;;;3.89;75.91;98134.22;4968171;28;20088;-68
2023/01/08 09:17:21;;;;;;;88.22;47.15;;;;;;;4.01;75.82;98132.16;4965396;28;20035;-68
2023/01/08 09:19:46;;;;;;;77.10;43.03;;;;;;;4.14;76.09;98124.59;4970285;28;20089;-68
2023/01/08 09:22:12;;;;;;;56.70;31.05;;;;;;;4.26;76.06;98116.28;4971632;28;20045;-68
2023/01/08 09:24:37;;;;;;;50.03;27.60;;;;;;;4.37;76.27;98115.22;4977322;28;20030;-68
2023/01/08 09:27:02;;;;;;;49.10;26.30;;;;;;;4.50;75.88;98110.41;4969660;28;20022;-68
2023/01/08 09:29:28;;;;;;;46.90;25.67;;;;;;;4.62;76.58;98092.81;4968970;28;20092;-68
2023/01/08 09:31:54;;;;;;;45.15;25.27;;;;;;;4.74;76.24;98084.41;4969169;28;20038;-67
2023/01/08 09:34:19;;;;;;;44.70;25.92;;;;;;;4.87;76.36;98083.13;4999646;28;20031;-68
2023/01/08 09:36:45;;;;;;;48.30;24.80;;;;;;;4.97;76.16;98082.31;5026217;28;20048;-68
2023/01/08 09:39:10;;;;;;;50.42;26.15;;;;;;;5.08;76.58;98077.69;4973287;28;20059;-68
2023/01/08 09:41:41;;;;;;;43.00;24.35;;;;;;;5.16;76.43;98068.19;4970598;28;20030;-68
2023/01/08 09:44:10;;;;;;;43.05;25.25;;;;;;;5.23;76.32;98060.59;4969479;28;20031;-69
2023/01/08 09:46:36;;;;;;;44.35;25.45;;;;;;;5.32;76.61;98058.97;4970235;28;20052;-69
2023/01/08 09:49:06;;;;;;;42.78;23.30;;;;;;;5.40;76.44;98056.81;5072327;28;20059;-69
2023/01/08 09:51:37;;;;;;;40.25;23.08;;;;;;;5.46;76.28;98061.16;5072107;28;20094;-68
2023/01/08 09:54:06;;;;;;;45.25;26.92;;;;;;;5.51;76.48;98050.25;5055731;28;20510;-68
2023/01/08 09:56:34;;;;;;;46.45;26.52;;;;;;;5.58;76.04;98048.06;5032855;28;20064;-68
2023/01/08 09:59:01;;;;;;;43.85;25.10;;;;;;;5.64;76.19;98046.97;4969043;28;20042;-69
2023/01/08 10:01:33;;;;;;;42.97;25.57;;;;;;;5.68;75.96;98038.28;5019164;28;20581;-69
2023/01/08 10:04:05;;;;;;;45.78;27.80;;;;;;;5.70;76.22;98033.38;4969317;28;20031;-70
2023/01/08 10:06:30;;;;;;;43.45;25.35;;;;;;;5.73;76.22;98030.91;4966452;28;20047;-70
2023/01/08 10:08:57;;;;;;;46.53;25.75;;;;;;;5.77;76.15;98029.28;5015754;28;20059;-69
2023/01/08 10:11:23;;;;;;;46.65;25.45;;;;;;;5.85;75.75;98027.06;5002222;28;20027;-69
2023/01/08 10:13:53;;;;;;;46.00;28.05;;;;;;;5.91;76.16;98024.06;4971113;28;20449;-70
2023/01/08 10:16:36;;;;;;;48.42;27.77;;;;;;;5.96;75.88;98025.97;4969278;28;20027;-69
2023/01/08 10:19:03;;;;;;;46.42;25.58;;;;;;;6.01;76.03;98020.53;4970665;28;20084;-69
2023/01/08 10:21:40;;;;;;;45.90;26.23;;;;;;;6.03;76.03;98020.25;4969095;28;20035;-70
2023/01/08 10:24:06;;;;;;;50.00;28.38;;;;;;;6.06;76.10;98020.53;4967379;28;20487;-69
2023/01/08 10:26:35;;;;;;;55.38;30.13;;;;;;;6.07;75.62;98016.72;4968015;28;20117;-70
2023/01/08 10:29:13;;;;;;;54.90;32.42;;;;;;;6.08;75.67;98020.25;4969315;28;20433;-69
2023/01/08 10:31:54;;;;;;;53.88;29.92;;;;;;;6.08;75.62;98017.53;4968904;28;20415;-69
2023/01/08 10:34:40;;;;;;;56.55;31.75;;;;;;;6.07;75.61;98008.56;4967640;28;20149;-70
2023/01/08 10:37:28;;;;;;;58.67;31.92;;;;;;;6.11;75.69;98015.03;4977232;28;20060;-69
2023/01/08 10:40:16;;;;;;;56.58;31.27;;;;;;;6.15;75.76;98015.31;5015358;28;20062;-69
2023/01/08 10:42:42;;;;;;;57.70;30.92;;;;;;;6.18;75.36;98006.59;4993047;28;20023;-69
2023/01/08 10:45:26;;;;;;;53.90;30.67;;;;;;;6.17;75.46;98010.41;4967861;28;20592;-68
2023/01/08 10:48:05;;;;;;;60.97;33.80;;;;;;;6.19;75.52;98007.41;4968104;28;20019;-67
2023/01/08 10:50:33;;;;;;;62.42;34.70;;;;;;;6.15;75.43;98000.88;4966618;28;20110;-68
2023/01/08 10:53:20;;;;;;;61.38;34.13;;;;;;;6.14;75.53;98000.06;4971186;28;20513;-68
2023/01/08 10:56:00;;;;;;;54.70;31.45;;;;;;;6.12;75.30;97991.38;4971982;28;20043;-67
2023/01/08 10:58:26;;;;;;;56.13;32.75;;;;;;;6.13;75.57;97986.72;4967752;28;20039;-67
2023/01/08 11:00:52;;;;;;;62.30;34.72;;;;;;;6.12;75.43;97980.47;4966910;28;20019;-67
2023/01/08 11:03:27;;;;;;;61.00;34.78;;;;;;;6.15;75.28;97970.94;4965516;28;20471;-67
2023/01/08 11:05:53;;;;;;;60.13;32.78;;;;;;;6.18;75.43;97967.66;4966361;28;20029;-67
2023/01/08 11:08:20;;;;;;;63.67;36.17;;;;;;;6.20;75.30;97971.75;4967966;28;20027;-67
2023/01/08 11:10:58;;;;;;;63.15;33.88;;;;;;;6.20;75.07;97976.34;4967767;28;20023;-67
2023/01/08 11:13:24;;;;;;;61.42;36.50;;;;;;;6.21;75.18;97973.38;4966790;28;20026;-67
2023/01/08 11:16:03;;;;;;;60.55;33.85;;;;;;;6.22;76.05;97971.44;4966013;28;20035;-68
2023/01/08 11:18:30;;;;;;;71.97;38.40;;;;;;;6.25;75.30;97969.00;4967056;28;20106;-67
2023/01/08 11:21:17;;;;;;;63.35;34.60;;;;;;;6.28;75.47;97962.16;4967734;28;20034;-67
2023/01/08 11:23:42;;;;;;;61.60;32.85;;;;;;;6.34;75.02;97960.22;4967144;28;20066;-67
2023/01/08 11:26:20;;;;;;;58.33;32.95;;;;;;;6.39;75.81;97960.19;4977334;28;20113;-67
2023/01/08 11:29:04;;;;;;;55.80;30.15;;;;;;;6.45;75.53;97958.25;4967460;28;20530;-68